createdAt,value
2018-11-25T00:03:33.827Z,26.90
2018-11-25T00:07:37.889Z,37.57
2018-11-25T00:11:41.902Z,40.83
2018-11-25T00:15:45.931Z,25.53
2018-11-25T00:19:49.946Z,26.43
2018-11-25T00:23:53.881Z,31.90
2018-11-25T00:27:57.821Z,24.73
2018-11-25T00:32:01.802Z,26.70
2018-11-25T00:36:06.078Z,25.57
2018-11-25T00:40:13.967Z,30.03
2018-11-25T00:44:17.953Z,36.93
2018-11-25T00:48:21.853Z,34.47
2018-11-25T00:52:25.788Z,29.20
2018-11-25T00:56:29.754Z,27.40
2018-11-25T01:00:33.733Z,26.03
2018-11-25T01:04:37.782Z,39.67
2018-11-25T01:08:41.761Z,35.27
2018-11-25T01:12:45.946Z,39.07
2018-11-25T01:16:49.941Z,39.93
2018-11-25T01:20:54.132Z,30.13
2018-11-25T01:24:58.055Z,29.57
2018-11-25T01:29:01.994Z,38.63
2018-11-25T01:33:06.151Z,34.67
2018-11-25T01:37:10.081Z,29.23
2018-11-25T01:41:14.038Z,39.80
2018-11-25T01:45:18.422Z,35.23
2018-11-25T01:49:22.647Z,35.37
2018-11-25T01:53:26.335Z,24.67
2018-11-25T01:57:30.335Z,35.27
2018-11-25T02:01:34.319Z,38.13
2018-11-25T02:05:38.305Z,26.80
2018-11-25T02:09:42.337Z,32.58
2018-11-25T02:13:46.341Z,34.77
2018-11-25T02:17:50.371Z,30.43
2018-11-25T02:21:54.289Z,34.77
2018-11-25T02:25:58.317Z,38.70
2018-11-25T02:30:02.345Z,32.83
2018-11-25T02:34:06.582Z,37.37
2018-11-25T02:38:10.611Z,38.58
2018-11-25T02:42:14.522Z,36.37
2018-11-25T02:46:18.525Z,37.27
2018-11-25T02:50:23.702Z,28.80
2018-11-25T02:54:27.807Z,35.87
2018-11-25T02:58:31.866Z,31.07
2018-11-25T03:02:35.862Z,27.17
2018-11-25T03:06:39.927Z,37.03
2018-11-25T03:10:43.954Z,37.77
2018-11-25T03:14:47.946Z,38.30
2018-11-25T03:18:52.006Z,35.83
2018-11-25T03:22:55.969Z,40.53
2018-11-25T03:27:00.088Z,34.17
2018-11-25T03:31:04.062Z,35.47
2018-11-25T03:35:09.316Z,32.30
2018-11-25T03:39:13.395Z,36.20
2018-11-25T03:43:17.405Z,36.97
2018-11-25T03:47:21.356Z,37.47
2018-11-25T03:51:25.409Z,34.70
2018-11-25T03:55:29.451Z,35.37
2018-11-25T03:59:33.431Z,44.93
2018-11-25T04:03:37.453Z,36.33
2018-11-25T04:07:41.466Z,37.10
2018-11-25T04:11:46.485Z,46.77
2018-11-25T04:15:49.509Z,42.63
2018-11-25T04:19:53.504Z,51.53
2018-11-25T04:23:57.411Z,64.77
2018-11-25T04:28:01.463Z,54.40
2018-11-25T04:32:05.412Z,49.10
2018-11-25T04:36:09.374Z,50.33
2018-11-25T04:40:16.107Z,49.50
2018-11-25T04:44:20.047Z,45.87
2018-11-25T04:48:24.067Z,62.00
2018-11-25T04:52:28.067Z,57.30
2018-11-25T04:56:32.092Z,48.40
2018-11-25T05:00:36.123Z,44.07
2018-11-25T05:04:40.214Z,41.93
2018-11-25T05:08:44.343Z,38.70
2018-11-25T05:12:48.398Z,36.67
2018-11-25T05:16:52.343Z,37.97
2018-11-25T05:20:56.291Z,38.17
2018-11-25T05:25:00.214Z,39.70
2018-11-25T05:29:04.187Z,39.53
2018-11-25T05:33:08.127Z,44.00
2018-11-25T05:37:12.074Z,36.70
2018-11-25T05:41:16.023Z,40.73
2018-11-25T05:45:20.442Z,48.10
2018-11-25T05:49:24.485Z,47.27
2018-11-25T05:53:28.511Z,49.50
2018-11-25T05:57:32.538Z,49.57
2018-11-25T06:01:36.563Z,36.28
2018-11-25T06:05:40.556Z,39.17
2018-11-25T06:09:44.599Z,42.10
2018-11-25T06:13:48.652Z,37.80
2018-11-25T06:17:52.659Z,35.10
2018-11-25T06:21:56.598Z,33.07
2018-11-25T06:26:00.563Z,31.82
2018-11-25T06:30:05.237Z,31.73
2018-11-25T06:34:09.193Z,33.13
2018-11-25T06:38:13.177Z,29.87
2018-11-25T06:42:17.215Z,29.73
2018-11-25T06:46:21.157Z,31.33
2018-11-25T06:50:25.129Z,31.57
2018-11-25T06:54:29.175Z,29.07
2018-11-25T06:58:33.188Z,34.57
2018-11-25T07:02:37.209Z,28.60
2018-11-25T07:06:41.224Z,38.13
2018-11-25T07:10:45.227Z,33.90
2018-11-25T07:14:49.246Z,33.10
2018-11-25T07:18:53.219Z,36.27
2018-11-25T07:22:57.188Z,36.27
2018-11-25T07:27:01.265Z,39.60
2018-11-25T07:31:06.232Z,36.27
2018-11-25T07:35:10.205Z,33.13
2018-11-25T07:39:15.041Z,34.40
2018-11-25T07:43:18.987Z,33.00
2018-11-25T07:47:22.982Z,31.30
2018-11-25T07:51:26.980Z,30.13
2018-11-25T07:55:31.030Z,30.47
2018-11-25T07:59:35.046Z,33.60
2018-11-25T08:03:39.096Z,35.87
2018-11-25T08:07:43.088Z,35.53
2018-11-25T08:13:11.539Z,37.37
2018-11-25T08:17:15.519Z,31.03
2018-11-25T08:21:19.520Z,33.17
2018-11-25T08:25:23.493Z,37.33
2018-11-25T08:29:27.513Z,39.30
2018-11-25T08:33:31.463Z,37.03
2018-11-25T08:37:35.423Z,33.10
2018-11-25T08:41:39.457Z,35.00
2018-11-25T08:45:43.447Z,38.17
2018-11-25T08:49:47.504Z,35.63
2018-11-25T08:53:51.519Z,36.93
2018-11-25T08:57:55.678Z,39.27
2018-11-25T09:01:59.644Z,39.43
2018-11-25T09:06:03.687Z,40.77
2018-11-25T09:10:14.739Z,42.37
2018-11-25T09:14:18.798Z,44.13
2018-11-25T09:18:22.819Z,41.77
2018-11-25T09:22:26.767Z,43.67
2018-11-25T09:26:30.732Z,37.83
2018-11-25T09:30:34.747Z,41.67
2018-11-25T09:34:38.688Z,43.30
2018-11-25T09:38:42.743Z,45.37
2018-11-25T09:42:46.680Z,43.13
2018-11-25T09:46:50.635Z,36.70
2018-11-25T09:50:54.593Z,41.00
2018-11-25T09:54:58.619Z,35.77
2018-11-25T09:59:02.641Z,41.73
2018-11-25T10:03:07.784Z,40.60
2018-11-25T10:07:11.827Z,36.93
2018-11-25T10:11:15.908Z,42.47
2018-11-25T10:15:21.868Z,33.77
2018-11-25T10:19:26.091Z,41.53
2018-11-25T10:23:30.132Z,40.33
2018-11-25T10:27:34.099Z,39.43
2018-11-25T10:31:38.071Z,43.93
2018-11-25T10:35:42.109Z,42.37
2018-11-25T10:39:46.065Z,36.30
2018-11-25T10:43:50.036Z,38.70
2018-11-25T10:47:54.211Z,33.93
2018-11-25T10:51:58.204Z,38.80
2018-11-25T10:56:02.223Z,36.37
2018-11-25T11:00:19.342Z,36.40
2018-11-25T11:04:28.670Z,39.33
2018-11-25T11:08:32.787Z,39.17
2018-11-25T11:12:36.826Z,39.27
2018-11-25T11:16:40.920Z,39.20
2018-11-25T11:20:44.870Z,36.83
2018-11-25T11:24:48.860Z,37.50
2018-11-25T11:28:52.888Z,30.30
2018-11-25T11:32:56.819Z,35.33
2018-11-25T11:37:00.777Z,35.83
2018-11-25T11:41:04.759Z,39.40
2018-11-25T11:45:10.883Z,37.50
2018-11-25T11:49:14.975Z,41.37
2018-11-25T11:53:19.036Z,39.50
2018-11-25T11:57:23.048Z,41.03
2018-11-25T12:01:27.064Z,38.20
2018-11-25T12:05:31.095Z,41.00
2018-11-25T12:09:35.089Z,42.47
2018-11-25T12:13:39.138Z,42.80
2018-11-25T12:17:43.154Z,36.87
2018-11-25T12:21:47.189Z,44.17
2018-11-25T12:25:51.142Z,43.93
2018-11-25T12:29:55.047Z,41.67
2018-11-25T12:33:59.119Z,52.47
2018-11-25T12:38:03.707Z,48.05
2018-11-25T12:42:07.691Z,48.23
2018-11-25T12:46:11.729Z,51.07
2018-11-25T12:50:17.787Z,44.77
2018-11-25T12:54:21.740Z,49.27
2018-11-25T12:58:25.746Z,45.00
2018-11-25T13:02:29.793Z,50.50
2018-11-25T13:06:33.819Z,50.27
2018-11-25T13:10:37.794Z,50.73
2018-11-25T13:14:41.806Z,44.97
2018-11-25T13:18:45.834Z,46.77
2018-11-25T13:22:49.774Z,44.63
2018-11-25T13:26:53.771Z,46.57
2018-11-25T13:30:57.793Z,46.63
2018-11-25T13:35:01.739Z,49.57
2018-11-25T13:39:08.914Z,47.83
2018-11-25T13:43:12.963Z,49.77
2018-11-25T13:47:16.992Z,51.73
2018-11-25T13:51:21.030Z,60.00
2018-11-25T13:55:27.251Z,59.73
2018-11-25T13:59:31.392Z,54.33
2018-11-25T14:03:38.395Z,52.23
2018-11-25T14:07:42.370Z,62.77
2018-11-25T14:11:46.351Z,62.97
2018-11-25T14:15:50.435Z,56.13
2018-11-25T14:19:54.389Z,59.90
2018-11-25T14:23:58.503Z,57.53
2018-11-25T14:28:06.032Z,66.70
2018-11-25T14:32:10.111Z,69.50
2018-11-25T14:36:14.160Z,67.03
2018-11-25T14:40:19.267Z,57.60
2018-11-25T14:44:23.224Z,62.77
2018-11-25T14:48:27.324Z,63.67
2018-11-25T14:52:31.411Z,62.00
2018-11-25T14:56:35.473Z,54.87
2018-11-25T15:00:39.543Z,70.27
2018-11-25T15:04:43.588Z,57.13
2018-11-25T15:08:47.577Z,64.13
2018-11-25T15:12:51.775Z,62.57
2018-11-25T15:16:55.833Z,57.33
2018-11-25T15:20:59.818Z,72.10
2018-11-25T15:25:03.842Z,64.67
2018-11-25T15:29:07.808Z,59.37
2018-11-25T15:33:11.815Z,63.97
2018-11-25T15:37:15.819Z,59.70
2018-11-25T15:41:19.735Z,54.70
2018-11-25T15:45:23.795Z,56.93
2018-11-25T15:49:27.764Z,58.37
2018-11-25T15:53:31.832Z,62.93
2018-11-25T15:57:35.843Z,51.37
2018-11-25T16:01:39.938Z,59.13
2018-11-25T16:05:45.839Z,60.30
2018-11-25T16:09:49.911Z,59.03
2018-11-25T16:13:53.918Z,48.07
2018-11-25T16:17:58.016Z,57.13
2018-11-25T16:22:01.993Z,54.07
2018-11-25T16:26:10.099Z,49.73
2018-11-25T16:30:14.509Z,45.33
2018-11-25T16:34:18.468Z,46.47
2018-11-25T16:38:22.575Z,42.33
2018-11-25T16:42:26.499Z,39.80
2018-11-25T16:46:30.707Z,39.80
2018-11-25T16:50:34.998Z,37.90
2018-11-25T16:54:39.054Z,35.90
2018-11-25T16:58:43.058Z,36.07
2018-11-25T17:02:47.037Z,33.23
2018-11-25T17:06:52.244Z,32.20
2018-11-25T17:10:56.272Z,35.97
2018-11-25T17:15:00.326Z,35.97
2018-11-25T17:19:04.332Z,36.17
2018-11-25T17:23:09.011Z,35.23
2018-11-25T17:27:13.038Z,36.73
2018-11-25T17:31:17.088Z,36.60
2018-11-25T17:35:27.708Z,38.23
2018-11-25T17:39:31.696Z,34.13
2018-11-25T17:43:35.622Z,35.10
2018-11-25T17:47:39.707Z,34.97
2018-11-25T17:51:43.820Z,36.27
2018-11-25T17:55:47.881Z,33.80
2018-11-25T17:59:51.947Z,35.40
2018-11-25T18:03:56.077Z,36.77
2018-11-25T18:08:00.233Z,36.77
2018-11-25T18:12:04.251Z,36.83
2018-11-25T18:16:10.065Z,41.03
2018-11-25T18:20:14.047Z,41.87
2018-11-25T18:24:18.024Z,36.73
2018-11-25T18:28:22.106Z,34.57
2018-11-25T18:32:26.092Z,45.03
2018-11-25T18:36:30.131Z,43.83
2018-11-25T18:40:34.187Z,42.73
2018-11-25T18:44:38.254Z,54.33
2018-11-25T18:48:44.671Z,53.57
2018-11-25T18:52:51.259Z,52.47
2018-11-25T18:56:55.313Z,55.67
2018-11-25T19:01:24.528Z,49.73
2018-11-25T19:05:28.665Z,46.00
2018-11-25T19:09:32.792Z,46.33
2018-11-25T19:13:36.876Z,46.73
2018-11-25T19:17:40.912Z,47.57
2018-11-25T19:21:44.887Z,47.70
2018-11-25T19:25:48.844Z,45.67
2018-11-25T19:29:52.888Z,49.27
2018-11-25T19:33:56.879Z,41.20
2018-11-25T19:38:00.951Z,42.63
2018-11-25T19:42:05.095Z,39.67
2018-11-25T19:46:09.050Z,38.03
2018-11-25T19:50:22.625Z,41.63
2018-11-25T19:54:26.659Z,41.50
2018-11-25T19:58:30.740Z,40.70
2018-11-25T20:02:34.698Z,39.30
2018-11-25T20:06:38.776Z,37.57
2018-11-25T20:10:42.809Z,38.37
2018-11-25T20:14:46.832Z,34.50
2018-11-25T20:18:50.861Z,39.07
2018-11-25T20:22:55.214Z,38.93
2018-11-25T20:27:04.371Z,36.93
2018-11-25T20:31:08.364Z,37.00
2018-11-25T20:35:12.436Z,38.90
2018-11-25T20:39:22.003Z,36.27
2018-11-25T20:43:26.099Z,34.95
2018-11-25T20:47:30.138Z,35.17
2018-11-25T20:51:39.643Z,33.60
2018-11-25T20:55:43.682Z,35.30
2018-11-25T20:59:47.764Z,34.97
2018-11-25T21:03:51.788Z,34.13
2018-11-25T21:07:55.807Z,35.03
2018-11-25T21:11:59.845Z,33.93
2018-11-25T21:16:03.988Z,33.67
2018-11-25T21:20:13.257Z,34.07
2018-11-25T21:24:17.328Z,34.80
2018-11-25T21:28:21.344Z,32.30
2018-11-25T21:32:25.350Z,33.63
2018-11-25T21:41:04.040Z,35.03
2018-11-25T21:45:10.543Z,33.53
2018-11-25T21:49:14.592Z,35.53
2018-11-25T21:53:18.674Z,32.83
2018-11-25T21:57:22.763Z,33.30
2018-11-25T22:01:26.871Z,33.47
2018-11-25T22:05:30.951Z,38.57
2018-11-25T22:09:35.020Z,37.00
2018-11-25T22:13:39.078Z,35.80
2018-11-25T22:17:43.135Z,36.50
2018-11-25T22:21:47.122Z,41.63
2018-11-25T22:25:51.209Z,36.47
2018-11-25T22:29:55.310Z,38.47
2018-11-25T22:33:59.313Z,40.23
2018-11-25T22:38:03.341Z,42.37
2018-11-25T22:42:07.366Z,41.97
2018-11-25T22:46:11.343Z,44.90
2018-11-25T22:50:17.539Z,43.63
2018-11-25T22:54:21.559Z,45.07
2018-11-25T22:58:25.551Z,46.83
2018-11-25T23:02:29.634Z,46.93
2018-11-25T23:06:45.077Z,49.43
2018-11-25T23:10:49.137Z,51.07
2018-11-25T23:14:53.358Z,52.47
2018-11-25T23:18:57.340Z,53.00
2018-11-25T23:23:01.309Z,56.63
2018-11-25T23:27:05.522Z,54.03
2018-11-25T23:31:09.505Z,53.10
2018-11-25T23:35:18.694Z,55.03
2018-11-25T23:39:22.671Z,44.17
2018-11-25T23:43:26.656Z,52.00
2018-11-25T23:47:30.690Z,54.77
2018-11-25T23:51:34.701Z,51.73
2018-11-25T23:55:38.758Z,48.77
2018-11-25T23:59:42.837Z,50.57
